Time;durP1;ratioP1;P1;durP2;ratioP2;P2;SDS_P1;SDS_P2;PMS_P1;PMS_P2;Temp;Humidity;BMP_temperature;BMP_pressure;BME280_temperature;BME280_humidity;BME280_pressure;Samples;Min_cycle;Max_cycle;Signal;HPM_P1;HPM_P2
2023/12/01 00:00:41;;;;;;;;;;;2.40;82.50;;;1.08;75.55;95123.75;5997881;23;19922;-88
2023/12/01 00:03:10;;;;;;;;;;;2.40;82.10;;;1.08;75.31;95123.75;5997660;23;19922;-88
2023/12/01 00:05:39;;;;;;;;;;;2.40;81.90;;;1.08;75.01;95123.75;5998067;23;19933;-88
2023/12/01 00:08:07;;;;;;;;;;;2.40;82.00;;;1.08;75.21;95118.34;6043747;23;19922;-88
2023/12/01 00:10:40;;;;;;;;;;;2.40;82.00;;;1.10;75.24;95118.91;5974221;23;20434;-88
2023/12/01 00:13:09;;;;;;;;;;;2.40;82.10;;;1.12;75.94;95134.88;5974381;23;19922;-88
2023/12/01 00:15:38;;;;;;;;;;;2.40;82.40;;;1.10;75.31;95131.56;6021574;23;19922;-88
2023/12/01 00:18:06;;;;;;;;;;;2.40;82.10;;;1.11;75.68;95117.06;6022614;23;19922;-88
2023/12/01 00:20:37;;;;;;;;;;;2.40;82.10;;;1.09;75.94;95120.00;6020843;23;20265;-88
2023/12/01 00:23:07;;;;;;;;;;;2.40;82.70;;;1.11;75.99;95123.25;5996921;23;19933;-88
2023/12/01 00:25:39;;;;;;;;;;;2.40;83.00;;;1.09;75.31;95120.00;5997576;23;19932;-88
2023/12/01 00:28:08;;;;;;;;;;;2.40;82.30;;;1.09;74.94;95117.28;5997394;23;20362;-88
2023/12/01 00:30:37;;;;;;;;;;;2.40;82.00;;;1.11;75.63;95122.44;6021113;23;20385;-88
2023/12/01 00:33:05;;;;;;;;;;;2.40;82.20;;;1.10;75.00;95113.50;5973922;23;19933;-88
2023/12/01 00:35:35;;;;;;;;;;;2.40;82.40;;;1.08;75.47;95118.34;5974452;23;19958;-88
2023/12/01 00:38:06;;;;;;;;;;;2.40;82.30;;;1.12;75.69;95121.38;5973911;23;19922;-88
2023/12/01 00:40:36;;;;;;;;;;;2.40;82.50;;;1.10;75.27;95115.41;6021474;23;19922;-88
2023/12/01 00:43:06;;;;;;;;;;;2.40;82.10;;;1.10;75.11;95113.50;5996686;23;19929;-88
2023/12/01 00:45:35;;;;;;;;;;;2.40;81.80;;;1.13;74.82;95113.06;5974074;23;19922;-89
2023/12/01 00:48:04;;;;;;;;;;;2.40;81.90;;;1.09;74.95;95109.22;5974290;23;20444;-88
2023/12/01 00:50:32;;;;;;;;;;;2.40;81.70;;;1.10;75.31;95116.22;5996803;23;19933;-88
2023/12/01 00:53:01;;;;;;;;;;;2.40;81.90;;;1.12;75.05;95113.28;5997082;23;19929;-88
2023/12/01 00:55:37;;;;;;;;;;;2.40;81.80;;;1.10;75.32;95104.63;5997589;23;19929;-88
2023/12/01 00:58:07;;;;;;;;;;;2.40;82.20;;;1.11;76.51;95109.78;5971110;23;20350;-88
2023/12/01 01:00:36;;;;;;;;;;;2.40;83.20;;;1.12;76.85;95121.38;5974440;23;19926;-88
2023/12/01 01:03:05;;;;;;;;;;;2.40;84.00;;;1.12;76.84;95130.28;5974183;23;19922;-88
2023/12/01 01:05:33;;;;;;;;;;;2.40;84.00;;;1.12;75.91;95116.81;5997294;23;19922;-88
2023/12/01 01:08:04;;;;;;;;;;;2.40;83.10;;;1.09;76.00;95109.22;5974485;23;19922;-88
2023/12/01 01:10:33;;;;;;;;;;;2.40;82.90;;;1.09;75.68;95100.28;5998881;23;20341;-88
2023/12/01 01:13:01;;;;;;;;;;;2.40;82.80;;;1.11;75.65;95111.66;5997976;23;19929;-88
2023/12/01 01:15:31;;;;;;;;;;;2.40;82.60;;;1.08;75.56;95107.56;6022087;23;19922;-88
2023/12/01 01:18:00;;;;;;;;;;;2.40;82.40;;;1.10;75.36;95108.13;5975062;23;19922;-88
2023/12/01 01:20:29;;;;;;;;;;;2.40;82.30;;;1.10;75.43;95108.13;5997891;23;19922;-88
2023/12/01 01:22:59;;;;;;;;;;;2.40;82.10;;;1.10;75.29;95094.66;5998544;23;19944;-88
2023/12/01 01:25:28;;;;;;;;;;;2.40;82.00;;;1.09;75.03;95087.66;5998774;23;19977;-88
2023/12/01 01:27:56;;;;;;;;;;;2.40;82.10;;;1.12;75.86;95083.66;6022311;23;19933;-88
2023/12/01 01:30:28;;;;;;;;;;;2.40;82.90;;;1.11;76.29;95074.72;6021758;23;19922;-88
2023/12/01 01:32:58;;;;;;;;;;;2.40;83.20;;;1.09;75.31;95066.09;6021662;23;20274;-88
2023/12/01 01:35:27;;;;;;;;;;;2.40;82.50;;;1.11;75.41;95080.13;5975643;23;19926;-88
2023/12/01 01:37:55;;;;;;;;;;;2.40;82.30;;;1.10;75.39;95078.47;6021848;23;20349;-88
2023/12/01 01:40:26;;;;;;;;;;;2.40;82.10;;;1.09;75.08;95079.56;5975409;23;20326;-88
2023/12/01 01:42:54;;;;;;;;;;;2.40;82.10;;;1.10;75.30;95083.88;6021592;23;19922;-88
2023/12/01 01:45:22;;;;;;;;;;;2.40;82.00;;;1.11;75.26;95073.91;6021720;23;20342;-88
2023/12/01 01:47:52;;;;;;;;;;;2.40;82.00;;;1.11;74.97;95069.34;6022025;23;19922;-88
2023/12/01 01:50:22;;;;;;;;;;;2.40;81.90;;;1.10;74.80;95065.00;5975009;23;19929;-88
2023/12/01 01:52:52;;;;;;;;;;;2.40;81.90;;;1.11;76.21;95053.16;6022271;23;19922;-88
2023/12/01 01:55:23;;;;;;;;;;;2.40;82.90;;;1.10;75.83;95054.22;5975423;23;19929;-88
2023/12/01 01:57:54;;;;;;;;;;;2.40;83.10;;;1.09;76.21;95039.13;5998645;23;19922;-88
2023/12/01 02:00:23;;;;;;;;;;;2.40;83.20;;;1.10;75.90;95046.13;5999213;23;20257;-88
2023/12/01 02:02:51;;;;;;;;;;;2.40;83.10;;;1.09;75.93;95049.91;5997997;23;19922;-88
2023/12/01 02:05:23;;;;;;;;;;;2.40;82.80;;;1.09;75.93;95039.13;6021547;23;19945;-88
2023/12/01 02:07:52;;;;;;;;;;;2.40;82.90;;;1.09;75.94;95049.91;5998439;23;19922;-88
2023/12/01 02:10:20;;;;;;;;;;;2.40;83.20;;;1.09;76.19;95052.59;6044965;23;19922;-88
2023/12/01 02:12:51;;;;;;;;;;;2.40;83.10;;;1.11;76.61;95041.56;5998612;23;19930;-88
2023/12/01 02:15:27;;;;;;;;;;;2.40;83.70;;;1.12;76.54;95041.31;5998192;23;19922;-88
2023/12/01 02:17:59;;;;;;;;;;;2.40;83.20;;;1.09;76.04;95041.81;5975360;23;19922;-88
2023/12/01 02:20:31;;;;;;;;;;;2.40;83.20;;;1.09;76.04;95041.81;6021683;23;20246;-88
2023/12/01 02:23:08;;;;;;;;;;;2.40;82.90;;;1.10;75.54;95029.97;5998455;23;19928;-88
2023/12/01 02:25:37;;;;;;;;;;;2.40;82.60;;;1.11;75.93;95039.69;5975536;23;19941;-88
2023/12/01 02:28:05;;;;;;;;;;;2.40;82.60;;;1.09;75.62;95025.66;5998243;23;19929;-88
2023/12/01 02:30:34;;;;;;;;;;;2.40;82.50;;;1.12;76.41;95010.88;5998551;23;19922;-88
2023/12/01 02:33:03;;;;;;;;;;;2.40;83.20;;;1.10;76.49;95008.41;6021343;23;19922;-88
2023/12/01 02:35:31;;;;;;;;;;;2.40;83.00;;;1.11;75.70;95003.84;6021340;23;19928;-88
2023/12/01 02:38:12;;;;;;;;;;;2.40;82.80;;;1.09;76.11;95006.78;5974953;23;20341;-88
2023/12/01 02:40:44;;;;;;;;;;;2.40;83.60;;;1.10;75.76;95008.41;6021905;23;20257;-88
2023/12/01 02:43:15;;;;;;;;;;;2.40;82.90;;;1.10;77.04;95003.00;5998306;23;20242;-88
2023/12/01 02:45:47;;;;;;;;;;;2.40;83.90;;;1.12;76.53;94998.19;6019969;23;19922;-88
2023/12/01 02:48:16;;;;;;;;;;;2.40;83.20;;;1.09;76.25;94998.72;6045153;23;19922;-88
2023/12/01 02:50:45;;;;;;;;;;;2.40;82.90;;;1.13;75.75;95001.72;5998230;23;20350;-88
2023/12/01 02:53:15;;;;;;;;;;;2.40;82.80;;;1.12;76.01;95002.78;5997936;23;20360;-88
2023/12/01 02:55:46;;;;;;;;;;;2.40;82.60;;;1.12;76.28;95003.59;5997587;23;19922;-88
2023/12/01 02:58:17;;;;;;;;;;;2.40;83.20;;;1.11;76.04;94998.44;5997998;23;19922;-88
2023/12/01 03:00:45;;;;;;;;;;;2.40;83.10;;;1.12;75.82;94994.69;5998393;23;19922;-88
2023/12/01 03:03:16;;;;;;;;;;;2.40;82.80;;;1.11;76.16;95010.03;6021887;23;19922;-88
2023/12/01 03:05:45;;;;;;;;;;;2.40;83.00;;;1.11;75.76;94999.25;5997220;23;19922;-88
2023/12/01 03:08:18;;;;;;;;;;;2.40;82.90;;;1.10;75.66;95003.00;5974763;23;19953;-88
2023/12/01 03:10:49;;;;;;;;;;;2.40;82.60;;;1.12;75.90;95005.47;5972767;23;19922;-88
2023/12/01 03:13:20;;;;;;;;;;;2.40;82.80;;;1.13;76.11;94999.84;6021750;23;19929;-88
2023/12/01 03:15:58;;;;;;;;;;;2.40;82.80;;;1.12;76.31;95002.78;5974962;23;19926;-88
2023/12/01 03:18:35;;;;;;;;;;;2.40;83.20;;;1.13;75.89;94991.75;6021435;23;19929;-88
2023/12/01 03:21:12;;;;;;;;;;;2.40;82.60;;;1.12;76.31;94995.50;5998073;23;20364;-88
2023/12/01 03:23:46;;;;;;;;;;;2.40;83.00;;;1.12;75.63;94986.63;6021034;23;19928;-88
2023/12/01 03:26:26;;;;;;;;;;;2.40;82.80;;;1.12;75.74;94987.41;5998577;23;19926;-88
2023/12/01 03:28:57;;;;;;;;;;;2.40;82.60;;;1.13;75.93;94980.97;5998629;23;19929;-88
2023/12/01 03:31:30;;;;;;;;;;;2.40;82.90;;;1.11;77.06;94977.69;5974067;23;19922;-88
2023/12/01 03:34:03;;;;;;;;;;;2.40;84.00;;;1.12;77.56;94971.25;5997172;23;20471;-88
2023/12/01 03:36:34;;;;;;;;;;;2.40;84.40;;;1.11;77.08;94977.69;5997767;23;19922;-88
2023/12/01 03:39:03;;;;;;;;;;;2.40;83.80;;;1.13;76.86;94991.75;5975029;23;19922;-88
2023/12/01 03:41:47;;;;;;;;;;;;;;;;;;;;;
2023/12/01 03:44:18;;;;;;;;;;;2.40;83.40;;;1.10;76.29;94986.84;5997581;23;19922;-88
2023/12/01 03:46:51;;;;;;;;;;;2.40;83.10;;;1.13;75.96;94978.28;5975339;23;19929;-88
2023/12/01 03:49:27;;;;;;;;;;;2.40;82.90;;;1.12;75.94;94984.72;5974706;23;19922;-88
2023/12/01 03:52:01;;;;;;;;;;;2.40;82.80;;;1.12;76.02;94982.03;6021478;23;19929;-88
2023/12/01 03:54:33;;;;;;;;;;;2.40;82.90;;;1.13;76.14;94985.56;5998036;23;20364;-88
2023/12/01 03:57:09;;;;;;;;;;;2.40;83.20;;;1.12;76.27;94990.13;6021264;23;20243;-88
2023/12/01 03:59:49;;;;;;;;;;;2.40;83.10;;;1.13;76.47;94986.38;5997688;23;19925;-88
2023/12/01 04:02:21;;;;;;;;;;;2.40;83.20;;;1.10;76.31;94978.75;5999818;23;19921;-89
2023/12/01 04:05:05;;;;;;;;;;;2.40;83.00;;;1.10;76.38;94976.06;5997981;23;19922;-88
2023/12/01 04:07:38;;;;;;;;;;;2.40;83.00;;;1.13;75.99;94975.59;5998136;23;19922;-88
2023/12/01 04:10:15;;;;;;;;;;;2.40;82.90;;;1.12;76.08;94973.94;5997438;23;19922;-88
2023/12/01 04:12:47;;;;;;;;;;;2.40;82.90;;;1.13;76.40;94974.78;5974737;23;20282;-88
2023/12/01 04:15:24;;;;;;;;;;;2.40;83.10;;;1.10;76.05;94976.06;5974303;23;19922;-88
2023/12/01 04:17:55;;;;;;;;;;;2.40;83.10;;;1.12;76.27;94965.06;5973228;23;19922;-88
2023/12/01 04:20:30;;;;;;;;;;;2.40;83.40;;;1.12;76.47;94949.69;6017262;23;20227;-88
2023/12/01 04:23:17;;;;;;;;;;;2.40;83.60;;;1.12;76.67;94955.06;5974850;23;19945;-88
2023/12/01 04:25:50;;;;;;;;;;;2.40;84.30;;;1.11;76.35;94939.97;5997373;23;19922;-88
2023/12/01 04:28:37;;;;;;;;;;;2.40;83.20;;;1.11;75.88;94950.75;5996975;23;20258;-88
2023/12/01 04:31:32;;;;;;;;;;;2.40;83.00;;;1.13;75.86;94964.00;6042021;23;19930;-88
2023/12/01 04:34:05;;;;;;;;;;;2.40;82.80;;;1.14;75.86;94958.34;6020485;23;19929;-88
2023/12/01 04:36:41;;;;;;;;;;;2.40;83.70;;;1.12;75.93;94941.59;6021053;23;19922;-88
2023/12/01 04:39:23;;;;;;;;;;;2.40;82.80;;;1.12;75.52;94941.59;5974409;23;19921;-88
2023/12/01 04:41:53;;;;;;;;;;;2.40;82.80;;;1.12;76.00;94946.19;5997956;23;19929;-88
2023/12/01 04:44:43;;;;;;;;;;;2.40;82.70;;;1.13;75.99;94951.31;6022081;23;19933;-88
2023/12/01 04:47:18;;;;;;;;;;;2.50;83.00;;;1.12;75.87;94955.06;5975239;23;19922;-88
2023/12/01 04:50:19;;;;;;;;;;;2.40;82.80;;;1.14;75.93;94961.03;6020842;23;19922;-88
2023/12/01 04:53:10;;;;;;;;;;;2.40;82.70;;;1.15;77.02;94961.88;5998365;23;19925;-88
2023/12/01 04:55:48;;;;;;;;;;;2.40;84.00;;;1.14;76.25;94954.84;5975921;23;20341;-88
2023/12/01 04:58:39;;;;;;;;;;;2.40;83.30;;;1.11;76.74;94934.56;6045490;23;20249;-88
2023/12/01 05:01:40;;;;;;;;;;;;;;;;;;;;;
2023/12/01 05:04:27;;;;;;;;;;;;;;;;;;;;;
2023/12/01 05:07:36;;;;;;;;;;;2.40;83.20;;;1.12;76.37;94954.28;5998470;23;19922;-88
2023/12/01 05:10:33;;;;;;;;;;;2.40;83.10;;;1.10;76.03;94946.41;5998664;23;19922;-88
2023/12/01 05:13:22;;;;;;;;;;;;;;;;;;;;;
2023/12/01 05:16:00;;;;;;;;;;;2.50;83.30;;;1.14;77.01;94966.44;5993376;23;19922;-88
2023/12/01 05:19:03;;;;;;;;;;;2.40;83.80;;;1.12;77.35;94962.34;5975827;23;20367;-88
2023/12/01 05:22:06;;;;;;;;;;;2.40;84.30;;;1.12;76.51;94963.16;6000637;23;19922;-88
2023/12/01 05:25:32;;;;;;;;;;;;;;;;;;;;;
2023/12/01 05:28:14;;;;;;;;;;;2.40;83.90;;;1.12;76.59;94973.13;6022734;23;20364;-88
2023/12/01 05:31:21;;;;;;;;;;;;;;;;;;;;;
2023/12/01 05:34:12;;;;;;;;;;;2.40;84.80;;;1.11;77.01;94977.69;5974842;23;19933;-88
2023/12/01 05:36:49;;;;;;;;;;;2.50;84.00;;;1.11;76.53;94976.88;5975807;23;19922;-88
2023/12/01 05:39:50;;;;;;;;;;;2.50;83.80;;;1.14;76.47;94981.81;6022868;23;19926;-88
2023/12/01 05:42:48;;;;;;;;;;;2.40;83.50;;;1.13;76.23;94975.59;5988602;23;19922;-88
2023/12/01 05:45:33;;;;;;;;;;;;;;;;;;;;;
2023/12/01 05:48:34;;;;;;;;;;;2.50;83.30;;;1.12;76.52;94973.94;5994963;24;19922;-88
2023/12/01 05:51:16;;;;;;;;;;;2.50;83.50;;;1.15;76.69;94984.25;5947382;24;19929;-88
2023/12/01 05:56:55;;;;;;;;;;;2.50;83.70;;;1.15;76.96;94986.94;5993332;24;19922;-88
2023/12/01 05:59:41;;;;;;;;;;;;;;;;;;;;;
2023/12/01 06:02:51;;;;;;;;;;;;;;;;;;;;;
2023/12/01 06:05:58;;;;;;;;;;;;;;;;;;;;;
2023/12/01 06:09:21;;;;;;;;;;;;;;;;;;;;;
2023/12/01 06:12:33;;;;;;;;;;;2.50;86.10;;;1.15;78.17;95015.78;5992951;24;20575;-88
2023/12/01 06:15:44;;;;;;;;;;;2.50;85.30;;;1.12;79.01;95010.88;5806146;24;19937;-89
2023/12/01 06:18:41;;;;;;;;;;;2.50;86.20;;;1.13;77.83;95013.31;5938720;24;20365;-88
2023/12/01 06:21:57;;;;;;;;;;;;;;;;;;;;;
2023/12/01 06:24:55;;;;;;;;;;;2.40;84.50;;;1.12;77.48;95011.69;5993186;24;19930;-88
2023/12/01 06:27:51;;;;;;;;;;;2.40;84.50;;;1.13;77.06;95013.31;5947279;24;19922;-88
2023/12/01 06:30:40;;;;;;;;;;;2.40;84.00;;;1.15;77.76;95011.19;5993273;24;19923;-88
2023/12/01 06:33:43;;;;;;;;;;;;;;;;;;;;;
2023/12/01 06:36:20;;;;;;;;;;;2.50;84.30;;;1.17;76.80;95019.03;5970432;24;19926;-88
2023/12/01 06:42:22;;;;;;;;;;;;;;;;;;;;;
2023/12/01 06:49:42;;;;;;;;;;;2.50;83.70;;;1.15;76.75;95040.06;5868551;24;20257;-87
2023/12/01 06:53:17;;;;;;;;;;;2.50;83.80;;;1.18;76.44;95048.47;5949731;23;19922;-88
2023/12/01 06:56:30;;;;;;;;;;;2.50;83.50;;;1.17;76.32;95046.81;5997056;23;20364;-88
2023/12/01 06:59:55;;;;;;;;;;;2.50;83.20;;;1.18;76.13;95042.25;5972239;24;19922;-88
2023/12/01 07:02:38;;;;;;;;;;;2.50;83.10;;;1.17;75.83;95054.91;5993192;23;19929;-88
2023/12/01 07:05:51;;;;;;;;;;;;;;;;;;;;;
2023/12/01 07:08:55;;;;;;;;;;;2.50;82.90;;;1.19;76.03;95060.88;5953999;24;19922;-88
2023/12/01 07:11:36;;;;;;;;;;;2.50;82.80;;;1.17;75.49;95057.63;5970411;24;20349;-88
2023/12/01 07:14:36;;;;;;;;;;;2.50;82.70;;;1.18;75.97;95075.44;5970156;24;19923;-88
2023/12/01 07:17:29;;;;;;;;;;;2.50;82.70;;;1.18;75.89;95074.59;5970423;24;20245;-88
2023/12/01 07:20:18;;;;;;;;;;;2.50;82.70;;;1.17;76.03;95068.41;5970130;24;19929;-88
2023/12/01 07:23:18;;;;;;;;;;;2.50;82.70;;;1.18;76.01;95067.34;5998529;23;19923;-88
2023/12/01 07:25:50;;;;;;;;;;;2.50;82.70;;;1.18;75.62;95063.81;5970020;24;19922;-88
2023/12/01 07:28:37;;;;;;;;;;;2.50;82.70;;;1.16;75.79;95055.97;5946922;24;19923;-88
2023/12/01 07:31:13;;;;;;;;;;;2.50;82.70;;;1.16;76.11;95060.56;5953450;24;19923;-88
2023/12/01 07:33:50;;;;;;;;;;;2.50;83.00;;;1.17;76.14;95063.00;5947204;24;19923;-88
2023/12/01 07:36:18;;;;;;;;;;;2.50;83.00;;;1.16;76.02;95058.66;5970389;24;20338;-88
2023/12/01 07:38:52;;;;;;;;;;;2.50;83.00;;;1.17;76.20;95054.09;5970425;24;19929;-88
2023/12/01 07:41:49;;;;;;;;;;;;;;;;;;;;;
2023/12/01 07:44:48;;;;;;;;;;;2.50;83.20;;;1.19;76.17;95077.06;5993885;24;19922;-88
2023/12/01 07:48:21;;;;;;;;;;;2.50;83.30;;;1.18;76.31;95070.03;5975982;23;19929;-88
2023/12/01 07:51:29;;;;;;;;;;;;;;;;;;;;;
2023/12/01 07:54:58;;;;;;;;;;;2.50;83.10;;;1.18;76.27;95075.44;5969742;24;19923;-88
2023/12/01 07:58:28;;;;;;;;;;;;;;;;;;;;;
2023/12/01 08:01:26;;;;;;;;;;;2.50;82.90;;;1.19;75.67;95068.97;5993051;24;19923;-88
2023/12/01 08:03:55;;;;;;;;;;;2.50;82.80;;;1.21;75.91;95072.25;5969185;24;19923;-88
2023/12/01 08:06:31;;;;;;;;;;;2.50;82.80;;;1.21;75.74;95069.56;5947532;24;19922;-88
2023/12/01 08:09:00;;;;;;;;;;;2.50;82.90;;;1.20;75.75;95076.00;5993410;24;19982;-88
2023/12/01 08:11:47;;;;;;;;;;;2.50;83.00;;;1.21;75.79;95066.03;5969841;24;19923;-88
2023/12/01 08:14:22;;;;;;;;;;;2.50;83.00;;;1.21;75.91;95069.56;5992977;23;19922;-88
2023/12/01 08:17:03;;;;;;;;;;;2.50;82.90;;;1.23;76.09;95083.59;5969732;24;19922;-88
2023/12/01 08:19:38;;;;;;;;;;;2.50;82.80;;;1.24;75.85;95079.03;5992784;24;19926;-88
2023/12/01 08:25:18;;;;;;;;;;;2.50;82.70;;;1.25;75.68;95085.22;5944174;24;19923;-88
2023/12/01 08:28:09;;;;;;;;;;;2.60;82.70;;;1.26;76.16;95103.06;5992730;24;19923;-88
2023/12/01 08:31:13;;;;;;;;;;;2.60;83.00;;;1.28;75.88;95085.59;5969799;24;19938;-88
2023/12/01 08:34:05;;;;;;;;;;;2.60;83.00;;;1.31;76.00;95089.69;6016413;23;20235;-88
2023/12/01 08:36:56;;;;;;;;;;;2.60;83.00;;;1.29;75.80;95078.31;5948151;24;19930;-88
2023/12/01 08:39:54;;;;;;;;;;;2.60;82.90;;;1.30;75.81;95077.25;5970027;24;19932;-88
2023/12/01 08:42:40;;;;;;;;;;;;;;;;;;;;;
2023/12/01 08:45:12;;;;;;;;;;;2.60;82.70;;;1.35;75.72;95071.97;5968474;24;19922;-88
2023/12/01 08:48:19;;;;;;;;;;;2.70;82.70;;;1.38;76.03;95066.09;6013011;23;19937;-88
2023/12/01 08:50:50;;;;;;;;;;;2.70;82.70;;;1.44;75.59;95056.22;5997612;23;19929;-88
2023/12/01 08:53:22;;;;;;;;;;;2.70;82.40;;;1.48;75.11;95052.81;5974210;23;19922;-88
2023/12/01 08:55:58;;;;;;;;;;;2.80;82.30;;;1.50;74.83;95061.47;5997325;23;19926;-88
2023/12/01 08:58:41;;;;;;;;;;;2.80;82.10;;;1.52;74.71;95048.56;5998964;23;19922;-88
2023/12/01 09:01:24;;;;;;;;;;;2.80;81.80;;;1.53;74.84;95050.19;6043104;23;19921;-88
2023/12/01 09:04:12;;;;;;;;;;;2.80;81.80;;;1.57;74.67;95049.72;5997443;23;20345;-88
2023/12/01 09:06:54;;;;;;;;;;;2.90;81.70;;;1.59;74.75;95053.00;5999268;23;19922;-88
2023/12/01 09:09:58;;;;;;;;;;;2.90;81.70;;;1.61;74.60;95045.47;5996790;23;19929;-88
2023/12/01 09:13:07;;;;;;;;;;;2.90;81.70;;;1.60;74.68;95049.25;5997249;23;19980;-89
2023/12/01 09:16:20;;;;;;;;;;;2.90;81.60;;;1.59;74.90;95048.41;6014549;23;20352;-88
2023/12/01 09:23:11;;;;;;;;;;;;;;;;;;;;;
2023/12/01 09:30:13;;;;;;;;;;;2.90;81.80;;;1.50;75.14;95045.28;5854660;24;19935;-88
2023/12/01 09:33:17;;;;;;;;;;;;;;;;;;;;;
2023/12/01 09:36:25;;;;;;;;;;;2.80;81.90;;;1.51;75.45;95056.91;5860179;24;19923;-88
2023/12/01 09:39:04;;;;;;;;;;;2.80;82.10;;;1.55;75.66;95038.34;5962100;23;20342;-89
2023/12/01 09:41:53;;;;;;;;;;;2.90;82.40;;;1.55;74.96;95036.44;5998692;23;19945;-89
2023/12/01 09:44:38;;;;;;;;;;;;;;;;;;;;;
2023/12/01 09:47:39;;;;;;;;;;;2.90;82.10;;;1.61;75.60;95040.09;5977692;23;19926;-88
2023/12/01 09:50:42;;;;;;;;;;;2.90;82.20;;;1.62;75.54;95037.13;5999020;23;19926;-89
2023/12/01 09:53:37;;;;;;;;;;;2.90;82.50;;;1.65;75.70;95035.81;5998150;23;19922;-89
2023/12/01 09:56:29;;;;;;;;;;;3.00;82.40;;;1.66;75.50;95040.16;5976878;23;20342;-88
2023/12/01 09:59:06;;;;;;;;;;;3.00;82.20;;;1.67;75.06;95031.00;5998631;23;19922;-89
2023/12/01 10:01:51;;;;;;;;;;;;;;;;;;;;;
2023/12/01 10:04:35;;;;;;;;;;;3.00;82.00;;;1.75;75.39;95036.00;6043981;23;19922;-89
2023/12/01 10:07:38;;;;;;;;;;;3.00;82.20;;;1.74;74.98;95029.00;5998504;23;19922;-89
2023/12/01 10:10:47;;;;;;;;;;;3.10;82.20;;;1.78;74.88;95023.91;6015244;23;19933;-89
2023/12/01 10:14:22;;;;;;;;;;;3.10;82.00;;;1.78;75.23;95008.53;6007278;23;19926;-89
2023/12/01 10:17:35;;;;;;;;;;;;;;;;;;;;;
